Time;durP1;ratioP1;P1;durP2;ratioP2;P2;SDS_P1;SDS_P2;PMS_P1;PMS_P2;Temp;Humidity;BMP_temperature;BMP_pressure;BME280_temperature;BME280_humidity;BME280_pressure;Samples;Min_cycle;Max_cycle;Signal;HPM_P1;HPM_P2
2023/11/12 00:02:24;;;;;;;10.38;5.85;;;6.60;99.90;;;;;;5011611;28;20045;-72
2023/11/12 00:04:50;;;;;;;11.07;6.03;;;6.50;99.90;;;;;;5012717;28;20520;-72
2023/11/12 00:07:16;;;;;;;9.52;6.28;;;6.50;99.90;;;;;;5012865;28;20040;-72
2023/11/12 00:09:42;;;;;;;10.13;6.20;;;6.40;99.90;;;;;;5011743;28;20078;-72
2023/11/12 00:12:08;;;;;;;10.02;6.05;;;6.40;99.90;;;;;;5013040;28;20100;-73
2023/11/12 00:14:34;;;;;;;11.50;6.72;;;6.40;99.90;;;;;;5012477;28;20485;-73
2023/11/12 00:17:00;;;;;;;14.23;7.28;;;6.30;99.90;;;;;;5012881;28;20044;-73
2023/11/12 00:19:25;;;;;;;13.88;8.18;;;6.40;99.90;;;;;;5012795;28;20036;-72
2023/11/12 00:21:53;;;;;;;13.40;8.82;;;6.40;99.90;;;;;;5012524;28;20038;-72
2023/11/12 00:24:18;;;;;;;14.50;9.18;;;6.40;99.90;;;;;;5012439;28;20168;-72
2023/11/12 00:26:44;;;;;;;14.82;9.25;;;6.40;99.90;;;;;;5012832;28;20121;-72
2023/11/12 00:29:10;;;;;;;15.90;9.50;;;6.40;99.90;;;;;;5012695;28;20038;-72
2023/11/12 00:31:35;;;;;;;16.40;9.05;;;6.30;99.90;;;;;;5011377;28;20133;-72
2023/11/12 00:34:01;;;;;;;15.05;8.95;;;6.40;99.90;;;;;;5011162;28;20052;-72
2023/11/12 00:36:27;;;;;;;16.85;9.80;;;6.30;99.90;;;;;;5012356;28;20493;-72
2023/11/12 00:38:52;;;;;;;14.45;8.32;;;6.40;99.90;;;;;;5011115;28;20122;-72
2023/11/12 00:41:19;;;;;;;16.42;10.27;;;6.30;99.90;;;;;;5012376;28;20037;-72
2023/11/12 00:43:45;;;;;;;18.92;10.15;;;6.30;99.90;;;;;;5012099;28;20107;-72
2023/11/12 00:46:11;;;;;;;14.88;9.40;;;6.30;99.90;;;;;;5012355;28;20485;-72
2023/11/12 00:48:37;;;;;;;18.33;9.77;;;6.30;99.90;;;;;;4994955;28;20049;-72
2023/11/12 00:51:04;;;;;;;19.80;10.88;;;6.30;99.90;;;;;;5012158;28;20045;-72
2023/11/12 00:53:30;;;;;;;18.35;10.95;;;6.30;99.90;;;;;;5011968;28;20050;-72
2023/11/12 00:55:59;;;;;;;18.98;10.40;;;6.40;99.90;;;;;;5012573;28;20523;-72
2023/11/12 00:58:28;;;;;;;19.92;12.30;;;6.30;99.90;;;;;;5012407;28;20071;-72
2023/11/12 01:00:53;;;;;;;19.80;10.43;;;6.50;99.90;;;;;;5012192;28;20038;-72
2023/11/12 01:03:19;;;;;;;19.98;11.50;;;6.40;99.90;;;;;;5011670;28;20072;-72
2023/11/12 01:05:45;;;;;;;22.00;11.25;;;6.50;99.90;;;;;;5011994;28;20034;-73
2023/11/12 01:08:10;;;;;;;21.70;12.10;;;6.40;99.90;;;;;;5012190;28;20069;-72
2023/11/12 01:10:36;;;;;;;19.85;10.45;;;6.50;99.90;;;;;;5010650;28;20125;-72
2023/11/12 01:13:02;;;;;;;18.23;11.27;;;6.40;99.90;;;;;;5010339;28;20045;-72
2023/11/12 01:15:29;;;;;;;18.50;11.23;;;6.40;99.90;;;;;;5011975;28;20556;-72
2023/11/12 01:17:55;;;;;;;21.45;11.85;;;6.50;99.90;;;;;;5012014;28;20038;-73
2023/11/12 01:20:22;;;;;;;19.67;11.38;;;6.50;99.90;;;;;;5011616;28;20046;-72
2023/11/12 01:22:48;;;;;;;21.35;11.27;;;6.40;99.90;;;;;;5011344;28;20501;-73
2023/11/12 01:25:14;;;;;;;22.35;12.23;;;6.40;99.90;;;;;;5012017;28;20045;-72
2023/11/12 01:27:40;;;;;;;21.77;13.10;;;6.50;99.90;;;;;;5011786;28;20505;-72
2023/11/12 01:30:07;;;;;;;20.65;11.50;;;6.50;99.90;;;;;;5011846;28;20112;-72
2023/11/12 01:32:33;;;;;;;23.08;11.90;;;6.50;99.90;;;;;;5011673;28;20034;-72
2023/11/12 01:34:58;;;;;;;21.00;12.32;;;6.50;99.90;;;;;;5011689;28;20565;-72
2023/11/12 01:37:24;;;;;;;22.42;12.23;;;6.50;99.90;;;;;;5011845;28;20501;-73
2023/11/12 01:39:50;;;;;;;19.65;11.32;;;6.50;99.90;;;;;;5011656;28;20042;-72
2023/11/12 01:42:15;;;;;;;20.17;11.77;;;6.50;99.90;;;;;;5011678;28;20081;-72
2023/11/12 01:44:42;;;;;;;23.58;12.90;;;6.50;99.90;;;;;;5011415;28;20074;-72
2023/11/12 01:47:08;;;;;;;20.77;11.93;;;6.50;99.90;;;;;;5011676;28;20045;-72
2023/11/12 01:49:35;;;;;;;19.98;11.75;;;6.50;99.90;;;;;;5010336;28;20042;-72
2023/11/12 01:52:05;;;;;;;18.52;10.73;;;6.60;99.90;;;;;;5014725;28;20471;-73
2023/11/12 01:54:32;;;;;;;24.20;12.35;;;6.50;99.90;;;;;;5014034;28;20045;-72
2023/11/12 01:56:59;;;;;;;20.90;12.05;;;6.60;99.90;;;;;;5014099;28;20045;-72
2023/11/12 01:59:26;;;;;;;19.52;11.60;;;6.40;99.90;;;;;;5015422;28;20480;-72
2023/11/12 02:01:52;;;;;;;23.20;11.18;;;6.40;99.90;;;;;;5013955;28;20038;-72
2023/11/12 02:04:19;;;;;;;19.23;11.13;;;6.50;99.90;;;;;;4997222;28;20100;-72
2023/11/12 02:06:44;;;;;;;21.92;11.45;;;6.40;99.90;;;;;;5015307;28;20413;-72
2023/11/12 02:09:10;;;;;;;20.58;11.13;;;6.30;99.90;;;;;;5013898;28;20046;-73
2023/11/12 02:11:37;;;;;;;21.08;13.38;;;6.40;99.90;;;;;;5015113;28;20417;-72
2023/11/12 02:14:04;;;;;;;22.25;11.85;;;6.40;99.90;;;;;;5013361;28;20124;-72
2023/11/12 02:16:29;;;;;;;25.85;13.63;;;6.40;99.90;;;;;;5015032;28;20042;-73
2023/11/12 02:18:55;;;;;;;22.58;12.07;;;6.40;99.90;;;;;;5015288;28;20041;-72
2023/11/12 02:21:32;;;;;;;21.42;11.75;;;6.60;99.90;;;;;;5013804;28;20493;-72
2023/11/12 02:23:58;;;;;;;22.40;12.27;;;6.50;99.90;;;;;;5013439;28;20042;-72
2023/11/12 02:26:24;;;;;;;21.77;11.77;;;6.50;99.90;;;;;;5014913;28;20517;-72
2023/11/12 02:28:50;;;;;;;24.60;12.55;;;6.50;99.90;;;;;;5014849;28;20073;-72
2023/11/12 02:31:15;;;;;;;23.17;11.77;;;6.50;99.90;;;;;;5013540;28;20049;-72
2023/11/12 02:33:43;;;;;;;21.38;11.60;;;6.40;99.90;;;;;;5014575;28;20037;-72
2023/11/12 02:36:09;;;;;;;21.88;11.65;;;6.40;99.90;;;;;;5014754;28;20069;-72
2023/11/12 02:38:35;;;;;;;21.02;12.68;;;6.40;99.90;;;;;;5014752;28;20042;-72
2023/11/12 02:41:02;;;;;;;22.40;12.70;;;6.50;99.90;;;;;;5014458;28;20080;-72
2023/11/12 02:43:28;;;;;;;23.08;13.20;;;6.50;99.90;;;;;;4996655;28;20053;-72
2023/11/12 02:45:55;;;;;;;22.55;13.48;;;6.40;99.90;;;;;;5014756;28;20092;-73
2023/11/12 02:48:20;;;;;;;25.58;13.18;;;6.40;99.90;;;;;;5014538;28;20080;-73
2023/11/12 02:50:47;;;;;;;20.73;12.30;;;6.50;99.90;;;;;;5014469;28;20069;-73
2023/11/12 02:53:12;;;;;;;23.98;13.40;;;6.40;99.90;;;;;;5012698;28;20056;-73
2023/11/12 02:55:38;;;;;;;24.65;13.50;;;6.30;99.90;;;;;;5014364;28;20471;-73
2023/11/12 02:58:04;;;;;;;20.08;12.70;;;6.30;99.90;;;;;;5012944;28;20049;-72
2023/11/12 03:00:30;;;;;;;23.08;13.70;;;6.40;99.90;;;;;;5013092;28;20405;-73
2023/11/12 03:02:57;;;;;;;23.05;13.45;;;6.40;99.90;;;;;;5012827;28;20049;-73
2023/11/12 03:05:24;;;;;;;24.00;12.63;;;6.30;99.90;;;;;;5012805;28;20050;-73
2023/11/12 03:07:50;;;;;;;21.13;13.27;;;6.40;99.90;;;;;;5012801;28;20505;-72
2023/11/12 03:10:17;;;;;;;26.48;14.70;;;6.40;99.90;;;;;;5012710;28;20045;-73
2023/11/12 03:12:44;;;;;;;22.42;13.35;;;6.30;99.90;;;;;;5013481;28;20073;-73
2023/11/12 03:15:11;;;;;;;23.73;13.90;;;6.30;99.90;;;;;;5014131;28;20038;-72
2023/11/12 03:17:37;;;;;;;22.88;14.15;;;6.30;99.90;;;;;;5014116;28;20095;-73
2023/11/12 03:20:04;;;;;;;26.38;15.00;;;6.40;99.90;;;;;;5013878;28;20108;-73
2023/11/12 03:22:34;;;;;;;26.13;14.73;;;6.40;99.90;;;;;;5013603;28;20520;-72
2023/11/12 03:25:08;;;;;;;25.13;14.20;;;6.30;99.90;;;;;;5013481;28;20088;-73
2023/11/12 03:27:34;;;;;;;22.25;14.20;;;6.40;99.90;;;;;;5013670;28;20379;-73
2023/11/12 03:30:00;;;;;;;23.70;13.68;;;6.40;99.90;;;;;;5013787;28;20042;-73
2023/11/12 03:32:26;;;;;;;25.73;14.55;;;6.30;99.90;;;;;;5013622;28;20145;-72
2023/11/12 03:34:53;;;;;;;24.33;14.57;;;6.30;99.90;;;;;;5013389;28;20069;-73
2023/11/12 03:37:19;;;;;;;25.65;14.73;;;6.30;99.90;;;;;;5012406;28;20045;-73
2023/11/12 03:39:49;;;;;;;23.75;13.93;;;6.40;99.90;;;;;;5013262;28;20403;-72
2023/11/12 03:42:16;;;;;;;25.05;14.80;;;6.30;99.90;;;;;;5013481;28;20375;-72
2023/11/12 03:44:43;;;;;;;27.88;15.30;;;6.30;99.90;;;;;;5013004;28;20401;-72
2023/11/12 03:47:09;;;;;;;26.27;15.23;;;6.40;99.90;;;;;;5013389;28;20037;-73
2023/11/12 03:49:35;;;;;;;23.88;14.15;;;6.30;99.90;;;;;;5013303;28;20406;-72
2023/11/12 03:52:01;;;;;;;24.60;14.05;;;6.30;99.90;;;;;;5013130;28;20400;-73
2023/11/12 03:54:26;;;;;;;25.92;15.70;;;6.30;99.90;;;;;;5012760;28;20125;-72
2023/11/12 03:56:53;;;;;;;29.70;15.35;;;6.30;99.90;;;;;;5013375;28;20375;-72
2023/11/12 03:59:19;;;;;;;24.20;15.70;;;6.40;99.90;;;;;;5013336;28;20049;-73
2023/11/12 04:01:44;;;;;;;26.20;15.32;;;6.40;99.90;;;;;;5013043;28;20042;-73
2023/11/12 04:04:10;;;;;;;29.45;16.73;;;6.30;99.90;;;;;;5012663;28;20536;-72
2023/11/12 04:06:35;;;;;;;27.65;16.13;;;6.40;99.90;;;;;;5013099;28;20397;-71
2023/11/12 04:09:01;;;;;;;29.73;17.23;;;6.40;99.90;;;;;;5011601;28;20041;-72
2023/11/12 04:11:27;;;;;;;26.92;15.55;;;6.40;99.90;;;;;;5013075;28;20048;-71
2023/11/12 04:13:52;;;;;;;31.48;16.92;;;6.40;99.90;;;;;;5012491;28;20041;-71
2023/11/12 04:16:18;;;;;;;30.42;16.73;;;6.30;99.90;;;;;;5013070;28;20503;-71
2023/11/12 04:18:43;;;;;;;26.60;17.15;;;6.30;99.90;;;;;;5012812;28;20077;-72
2023/11/12 04:21:10;;;;;;;32.85;17.63;;;6.30;99.90;;;;;;5012678;28;20038;-72
2023/11/12 04:23:36;;;;;;;28.95;16.90;;;6.30;99.90;;;;;;5011050;28;20565;-72
2023/11/12 04:26:01;;;;;;;29.27;17.10;;;6.20;99.90;;;;;;5012938;28;20137;-72
2023/11/12 04:28:28;;;;;;;26.25;15.45;;;6.20;99.90;;;;;;5012752;28;20038;-72
2023/11/12 04:30:55;;;;;;;29.77;17.80;;;6.30;99.90;;;;;;5012588;28;20096;-71
2023/11/12 04:33:21;;;;;;;31.08;18.40;;;6.30;99.90;;;;;;5012201;28;20045;-72
2023/11/12 04:35:49;;;;;;;28.35;16.98;;;6.20;99.90;;;;;;5012511;28;20092;-72
2023/11/12 04:38:16;;;;;;;27.80;16.05;;;6.10;99.90;;;;;;5012369;28;20559;-72
2023/11/12 04:40:43;;;;;;;25.02;15.35;;;6.20;99.90;;;;;;5029868;22;20065;-73
2023/11/12 04:43:09;;;;;;;30.67;17.23;;;6.10;99.90;;;;;;4994547;28;20073;-73
2023/11/12 04:45:35;;;;;;;27.88;17.13;;;6.30;99.90;;;;;;4993212;28;20482;-73
2023/11/12 04:48:00;;;;;;;28.95;16.75;;;6.20;99.90;;;;;;4993676;28;20101;-73
2023/11/12 04:50:26;;;;;;;32.20;16.60;;;6.20;99.90;;;;;;4994036;28;20050;-73
2023/11/12 04:52:52;;;;;;;27.17;15.93;;;6.10;99.90;;;;;;4993140;28;20117;-73
2023/11/12 04:55:17;;;;;;;30.35;18.50;;;6.20;99.90;;;;;;4994255;28;20096;-73
2023/11/12 04:57:45;;;;;;;30.23;18.15;;;6.20;99.90;;;;;;4993730;28;20042;-73
2023/11/12 05:00:11;;;;;;;29.70;16.17;;;6.10;99.90;;;;;;4993669;28;20054;-73
2023/11/12 05:02:37;;;;;;;24.33;15.90;;;6.10;99.90;;;;;;4976631;28;20041;-73
2023/11/12 05:05:02;;;;;;;28.88;16.45;;;6.10;99.90;;;;;;4992220;28;20054;-73
2023/11/12 05:07:28;;;;;;;29.73;18.50;;;6.20;99.90;;;;;;4992662;28;20041;-73
2023/11/12 05:09:53;;;;;;;26.23;16.45;;;6.10;99.90;;;;;;4992321;28;20065;-73
2023/11/12 05:12:21;;;;;;;26.52;16.25;;;6.10;99.90;;;;;;4993504;28;20096;-73
2023/11/12 05:14:46;;;;;;;27.83;16.10;;;6.10;99.90;;;;;;4993930;28;20047;-73
2023/11/12 05:17:12;;;;;;;30.05;16.98;;;6.10;99.90;;;;;;4994162;28;20038;-73
2023/11/12 05:19:38;;;;;;;26.73;16.48;;;6.30;99.90;;;;;;4995142;28;20136;-73
2023/11/12 05:22:03;;;;;;;31.20;17.00;;;6.20;99.90;;;;;;4993980;28;20046;-73
2023/11/12 05:24:29;;;;;;;30.52;16.83;;;6.30;99.90;;;;;;4994504;28;20057;-73
2023/11/12 05:26:54;;;;;;;34.45;17.23;;;6.20;99.90;;;;;;4996513;28;20525;-72
2023/11/12 05:29:20;;;;;;;35.03;16.55;;;6.20;99.90;;;;;;4997508;28;20038;-73
2023/11/12 05:31:45;;;;;;;24.52;15.40;;;6.40;99.90;;;;;;4996420;28;20074;-73
2023/11/12 05:34:13;;;;;;;26.13;16.85;;;6.30;99.90;;;;;;4979545;28;20050;-73
2023/11/12 05:36:39;;;;;;;27.10;16.55;;;6.30;99.90;;;;;;4998157;28;20038;-73
2023/11/12 05:39:05;;;;;;;27.30;17.33;;;6.30;99.90;;;;;;4997340;28;20038;-73
2023/11/12 05:41:31;;;;;;;25.50;15.38;;;6.30;99.90;;;;;;4997425;28;20045;-73
2023/11/12 05:43:56;;;;;;;29.13;16.58;;;6.20;99.90;;;;;;4996811;28;20046;-73
2023/11/12 05:46:22;;;;;;;25.85;15.88;;;6.20;99.90;;;;;;4997309;28;20117;-73
2023/11/12 05:48:47;;;;;;;27.10;16.52;;;6.10;99.90;;;;;;4997469;28;20508;-73
2023/11/12 05:51:13;;;;;;;27.58;16.02;;;6.20;99.90;;;;;;4997271;28;20046;-73
2023/11/12 05:53:38;;;;;;;29.65;16.55;;;6.20;99.90;;;;;;4996687;28;20034;-73
2023/11/12 05:56:04;;;;;;;28.58;16.40;;;6.00;99.90;;;;;;4996624;28;20042;-73
2023/11/12 05:58:30;;;;;;;25.83;16.13;;;6.10;99.90;;;;;;4996773;28;20505;-73
2023/11/12 06:00:58;;;;;;;24.75;15.35;;;6.10;99.90;;;;;;4996630;28;20038;-73
2023/11/12 06:03:23;;;;;;;26.73;16.52;;;6.00;99.90;;;;;;4996586;28;20081;-73
2023/11/12 06:05:49;;;;;;;28.92;15.25;;;6.00;99.90;;;;;;4996219;28;20112;-73
2023/11/12 06:08:15;;;;;;;25.67;16.83;;;6.00;99.90;;;;;;4995838;28;20045;-73
2023/11/12 06:10:43;;;;;;;24.02;15.07;;;5.90;99.90;;;;;;4998139;28;20073;-73
2023/11/12 06:13:12;;;;;;;24.05;16.83;;;5.90;99.90;;;;;;4996532;28;20038;-73
2023/11/12 06:15:40;;;;;;;26.05;16.27;;;5.90;99.90;;;;;;4998057;28;20104;-72
2023/11/12 06:18:05;;;;;;;29.52;15.98;;;6.00;99.90;;;;;;4997379;28;20465;-72
2023/11/12 06:20:31;;;;;;;23.98;15.45;;;5.90;99.90;;;;;;4996761;28;20070;-72
2023/11/12 06:22:56;;;;;;;23.27;15.70;;;5.90;99.90;;;;;;4996131;28;20034;-72
2023/11/12 06:25:23;;;;;;;27.80;17.30;;;5.80;99.90;;;;;;4996664;28;20460;-72
2023/11/12 06:27:50;;;;;;;27.45;16.33;;;5.90;99.90;;;;;;4996393;28;20046;-72
2023/11/12 06:30:15;;;;;;;28.05;15.93;;;5.80;99.90;;;;;;4996502;28;20073;-73
2023/11/12 06:32:41;;;;;;;22.90;14.90;;;5.90;99.90;;;;;;4995940;28;20046;-72
2023/11/12 06:35:07;;;;;;;28.67;16.98;;;5.80;99.90;;;;;;4995274;28;20072;-72
2023/11/12 06:37:32;;;;;;;28.52;14.85;;;5.80;99.90;;;;;;4996136;28;20090;-73
2023/11/12 06:39:58;;;;;;;27.27;15.07;;;5.80;99.90;;;;;;4994413;28;20498;-73
2023/11/12 06:42:24;;;;;;;25.67;16.27;;;5.80;99.90;;;;;;4995734;28;20042;-73
2023/11/12 06:44:50;;;;;;;28.63;15.85;;;5.80;99.90;;;;;;4996100;28;20136;-73
2023/11/12 06:47:16;;;;;;;26.67;16.40;;;5.80;99.90;;;;;;4995688;28;20509;-72
2023/11/12 06:49:41;;;;;;;26.23;15.98;;;5.90;99.90;;;;;;4979540;28;20042;-72
2023/11/12 06:52:07;;;;;;;26.27;15.40;;;5.70;99.90;;;;;;4994460;28;20084;-73
2023/11/12 06:54:33;;;;;;;27.88;16.00;;;5.80;99.90;;;;;;4995819;28;20042;-73
2023/11/12 06:56:59;;;;;;;29.55;16.52;;;5.90;99.90;;;;;;4994789;28;20058;-73
2023/11/12 06:59:25;;;;;;;23.58;16.45;;;5.80;99.90;;;;;;4994565;28;20162;-73
2023/11/12 07:01:51;;;;;;;27.50;15.57;;;5.90;99.90;;;;;;4994470;28;20038;-73
2023/11/12 07:04:17;;;;;;;23.85;14.95;;;5.80;99.90;;;;;;4994051;28;20045;-73
2023/11/12 07:06:42;;;;;;;27.48;15.65;;;5.90;99.90;;;;;;4995768;28;20081;-73
2023/11/12 07:09:08;;;;;;;29.67;17.35;;;6.00;99.90;;;;;;4995817;28;20076;-72
2023/11/12 07:11:34;;;;;;;28.70;16.67;;;6.00;99.90;;;;;;4978844;28;20413;-73
2023/11/12 07:14:00;;;;;;;29.48;17.20;;;6.10;99.90;;;;;;4996745;28;20042;-73
2023/11/12 07:16:25;;;;;;;26.45;16.55;;;6.00;99.90;;;;;;4996863;28;20041;-73
2023/11/12 07:18:51;;;;;;;28.27;16.90;;;6.00;99.90;;;;;;4995604;28;20038;-73
2023/11/12 07:21:27;;;;;;;30.15;16.27;;;6.10;99.90;;;;;;4996362;28;20046;-72
2023/11/12 07:23:53;;;;;;;29.13;16.83;;;6.20;99.90;;;;;;4979178;28;20050;-73
2023/11/12 07:26:18;;;;;;;28.88;16.30;;;6.20;99.90;;;;;;4995720;28;20060;-73
2023/11/12 07:28:44;;;;;;;25.02;15.35;;;6.10;99.90;;;;;;4996830;28;20534;-72
2023/11/12 07:31:10;;;;;;;27.92;15.98;;;6.20;99.90;;;;;;4996757;28;20065;-72
2023/11/12 07:33:35;;;;;;;25.23;16.13;;;6.20;99.90;;;;;;4994608;28;20043;-73
2023/11/12 07:36:01;;;;;;;24.63;15.73;;;6.20;99.90;;;;;;4993757;28;20052;-73
2023/11/12 07:38:26;;;;;;;26.67;15.00;;;6.30;99.90;;;;;;4995558;28;20038;-73
2023/11/12 07:40:52;;;;;;;26.55;15.43;;;6.30;99.90;;;;;;4996006;28;20452;-73
2023/11/12 07:43:18;;;;;;;24.05;15.38;;;6.20;99.90;;;;;;4979082;28;20569;-74
2023/11/12 07:45:43;;;;;;;24.50;15.20;;;6.20;99.90;;;;;;4994619;28;20490;-75
2023/11/12 07:48:09;;;;;;;26.67;14.60;;;6.30;99.90;;;;;;4993357;28;20034;-75
2023/11/12 07:50:36;;;;;;;28.15;16.05;;;6.40;99.90;;;;;;4995238;28;20093;-75
2023/11/12 07:53:03;;;;;;;24.63;15.48;;;6.40;99.90;;;;;;4992968;28;20045;-75
2023/11/12 07:55:29;;;;;;;24.42;15.23;;;6.50;99.90;;;;;;4993576;28;20517;-75
2023/11/12 07:57:55;;;;;;;23.40;14.68;;;6.50;99.90;;;;;;4993669;28;20100;-73
2023/11/12 08:00:22;;;;;;;26.80;15.20;;;6.50;99.90;;;;;;4994181;28;20501;-73
2023/11/12 08:02:48;;;;;;;25.15;15.35;;;6.50;99.90;;;;;;4995071;28;20078;-73
2023/11/12 08:05:13;;;;;;;27.42;15.45;;;6.50;99.90;;;;;;4994311;28;20101;-73
2023/11/12 08:07:39;;;;;;;27.42;16.38;;;6.50;99.90;;;;;;4993062;28;20049;-73
2023/11/12 08:10:08;;;;;;;27.45;16.33;;;6.60;99.90;;;;;;4976669;28;20046;-73
2023/11/12 08:12:34;;;;;;;27.05;15.57;;;6.60;99.90;;;;;;4992855;28;20654;-73
2023/11/12 08:15:00;;;;;;;25.13;14.25;;;6.60;99.90;;;;;;4992679;28;20085;-73
2023/11/12 08:17:25;;;;;;;26.80;15.82;;;6.70;99.90;;;;;;4993656;28;20104;-73
2023/11/12 08:19:52;;;;;;;25.98;14.80;;;6.80;99.90;;;;;;4993706;28;20053;-73
2023/11/12 08:22:18;;;;;;;24.90;15.10;;;6.80;99.90;;;;;;4993099;28;20409;-73
2023/11/12 08:24:44;;;;;;;25.88;14.40;;;6.90;99.90;;;;;;4993273;28;20038;-73
2023/11/12 08:27:09;;;;;;;28.63;15.82;;;6.80;99.90;;;;;;4993230;28;20100;-73
2023/11/12 08:29:35;;;;;;;29.15;15.18;;;6.90;99.90;;;;;;4994854;28;20086;-73
2023/11/12 08:32:01;;;;;;;28.33;14.93;;;7.10;99.90;;;;;;4993378;28;20505;-73
2023/11/12 08:34:26;;;;;;;24.10;15.60;;;7.10;99.90;;;;;;4994347;28;20169;-73
2023/11/12 08:36:52;;;;;;;24.38;13.98;;;7.10;99.90;;;;;;4994752;28;20197;-74
2023/11/12 08:39:18;;;;;;;25.83;14.48;;;7.20;99.90;;;;;;4994580;28;20053;-73
2023/11/12 08:41:48;;;;;;;29.85;16.33;;;7.30;99.90;;;;;;4977998;28;20437;-73
2023/11/12 08:44:13;;;;;;;25.40;15.43;;;7.30;99.90;;;;;;4977538;28;20074;-73
2023/11/12 08:46:40;;;;;;;25.63;14.80;;;7.30;99.90;;;;;;4992362;28;20070;-73
2023/11/12 08:49:06;;;;;;;23.23;14.25;;;7.20;99.90;;;;;;4966617;28;20030;-73
2023/11/12 08:51:33;;;;;;;27.40;13.63;;;7.20;99.90;;;;;;4993715;28;20092;-73
2023/11/12 08:53:58;;;;;;;25.85;14.50;;;7.40;99.90;;;;;;4993729;28;20042;-73
2023/11/12 08:56:25;;;;;;;23.98;14.13;;;7.30;99.90;;;;;;4994139;28;20113;-73
2023/11/12 08:58:51;;;;;;;21.58;13.25;;;7.30;99.90;;;;;;4991487;28;20046;-73
2023/11/12 09:01:17;;;;;;;23.05;13.73;;;7.30;99.90;;;;;;4990305;28;20038;-73
2023/11/12 09:03:42;;;;;;;20.80;12.55;;;7.50;99.90;;;;;;4991659;28;20038;-73
2023/11/12 09:06:08;;;;;;;22.52;12.60;;;7.50;99.90;;;;;;4991720;28;20096;-73
2023/11/12 09:08:33;;;;;;;19.50;11.88;;;7.50;99.90;;;;;;4974990;28;20046;-73
2023/11/12 09:10:59;;;;;;;20.52;12.13;;;7.40;99.90;;;;;;4992707;28;20042;-73
2023/11/12 09:13:25;;;;;;;19.30;11.93;;;7.60;99.90;;;;;;4974835;28;20050;-73
2023/11/12 09:15:50;;;;;;;19.42;12.45;;;7.60;99.90;;;;;;4992370;28;20042;-73
2023/11/12 09:18:16;;;;;;;21.23;12.63;;;7.60;99.90;;;;;;4991264;28;20387;-73
2023/11/12 09:20:43;;;;;;;20.60;12.93;;;7.70;99.90;;;;;;4992240;28;20045;-73
2023/11/12 09:23:09;;;;;;;20.58;12.77;;;7.60;99.90;;;;;;4993639;28;20058;-73
2023/11/12 09:25:35;;;;;;;22.48;13.25;;;7.70;99.90;;;;;;4994861;28;20034;-73
2023/11/12 09:28:02;;;;;;;21.35;12.43;;;7.70;99.90;;;;;;4993292;28;20575;-73
2023/11/12 09:30:31;;;;;;;22.85;13.43;;;7.70;99.90;;;;;;4992778;28;20052;-73
2023/11/12 09:32:56;;;;;;;20.85;12.88;;;7.70;99.90;;;;;;4991161;28;20038;-73
2023/11/12 09:35:23;;;;;;;21.30;13.25;;;7.70;99.90;;;;;;4977197;28;20041;-73
2023/11/12 09:37:50;;;;;;;22.85;14.48;;;7.70;99.90;;;;;;4991985;28;20078;-74
2023/11/12 09:40:16;;;;;;;24.98;13.38;;;7.70;99.90;;;;;;4991715;28;20038;-72
2023/11/12 09:42:50;;;;;;;26.52;14.93;;;7.90;99.90;;;;;;4993796;28;20043;-72
2023/11/12 09:45:18;;;;;;;25.95;14.35;;;7.90;99.90;;;;;;4993045;28;20034;-72
2023/11/12 09:47:53;;;;;;;27.08;14.95;;;7.80;99.90;;;;;;4991903;28;20042;-72
2023/11/12 09:50:23;;;;;;;27.15;14.05;;;7.80;99.90;;;;;;4994762;28;20041;-72
2023/11/12 09:52:51;;;;;;;24.88;13.98;;;7.70;99.90;;;;;;4992109;28;20053;-72
2023/11/12 09:55:19;;;;;;;22.58;13.65;;;7.70;99.90;;;;;;4993567;28;20038;-72
2023/11/12 09:57:48;;;;;;;23.35;13.77;;;7.80;99.90;;;;;;4976080;28;20065;-73
2023/11/12 10:00:16;;;;;;;21.92;12.88;;;7.70;99.90;;;;;;4993178;28;20042;-73
2023/11/12 10:02:44;;;;;;;23.20;12.93;;;7.80;99.90;;;;;;4992303;28;20101;-73
2023/11/12 10:05:10;;;;;;;23.60;14.35;;;7.80;99.90;;;;;;4995196;28;20050;-73
2023/11/12 10:07:39;;;;;;;21.05;12.75;;;7.80;99.90;;;;;;4997650;28;20049;-73
2023/11/12 10:10:26;;;;;;;24.83;13.85;;;7.80;99.90;;;;;;4996733;28;20490;-72
2023/11/12 10:12:53;;;;;;;22.83;13.68;;;7.80;99.90;;;;;;4981226;28;20125;-72
2023/11/12 10:15:27;;;;;;;22.30;12.90;;;7.80;99.90;;;;;;4998125;28;20071;-72
2023/11/12 10:17:54;;;;;;;23.85;13.98;;;7.80;99.90;;;;;;4992929;28;20100;-72
2023/11/12 10:20:24;;;;;;;23.77;14.30;;;7.90;99.90;;;;;;4998380;28;20505;-74
2023/11/12 10:22:51;;;;;;;23.52;12.43;;;7.90;99.90;;;;;;4997526;28;20038;-74
2023/11/12 10:25:44;;;;;;;21.58;13.07;;;7.90;99.90;;;;;;4979786;28;20117;-72
2023/11/12 10:28:11;;;;;;;23.17;13.48;;;7.90;99.90;;;;;;4997581;28;20034;-75
2023/11/12 10:30:40;;;;;;;22.23;12.95;;;8.00;99.90;;;;;;4986134;28;20054;-72
2023/11/12 10:33:23;;;;;;;21.33;14.32;;;7.90;99.90;;;;;;4996106;28;20030;-72
2023/11/12 10:35:49;;;;;;;19.55;12.55;;;8.00;99.90;;;;;;4996149;28;20069;-72
2023/11/12 10:38:17;;;;;;;21.20;12.05;;;8.00;99.90;;;;;;4996344;28;20042;-72
2023/11/12 10:41:04;;;;;;;23.10;13.02;;;7.90;99.90;;;;;;4992570;28;20038;-71
2023/11/12 10:43:35;;;;;;;21.77;12.30;;;8.00;99.90;;;;;;4974299;28;20058;-72
2023/11/12 10:46:03;;;;;;;20.88;12.15;;;8.00;99.90;;;;;;4994784;28;20035;-71
2023/11/12 10:48:39;;;;;;;23.52;13.10;;;8.00;99.90;;;;;;4973949;28;20081;-71
2023/11/12 10:51:10;;;;;;;19.23;12.50;;;7.90;99.90;;;;;;4973719;28;20034;-72
2023/11/12 10:53:38;;;;;;;22.95;13.50;;;8.00;99.90;;;;;;4988238;28;20038;-71
2023/11/12 10:56:05;;;;;;;21.85;13.63;;;8.00;99.90;;;;;;4994838;28;20045;-72
2023/11/12 10:58:32;;;;;;;24.08;14.95;;;8.10;99.90;;;;;;4994867;28;20050;-72
2023/11/12 11:01:03;;;;;;;25.23;15.27;;;8.10;99.90;;;;;;4994164;28;20049;-71
2023/11/12 11:03:31;;;;;;;27.15;15.93;;;8.30;99.90;;;;;;4992546;28;20125;-72
2023/11/12 11:06:01;;;;;;;26.40;15.00;;;8.20;99.90;;;;;;4994195;28;20549;-72
2023/11/12 11:08:28;;;;;;;29.73;15.13;;;8.20;99.90;;;;;;4993856;28;20442;-71
2023/11/12 11:10:54;;;;;;;28.67;15.75;;;8.30;99.90;;;;;;4994685;28;20072;-71
2023/11/12 11:13:21;;;;;;;24.27;15.27;;;8.30;99.90;;;;;;4973107;28;20494;-71
2023/11/12 11:15:48;;;;;;;26.23;14.75;;;8.30;99.90;;;;;;4990512;28;20034;-73
2023/11/12 11:18:31;;;;;;;24.75;14.40;;;8.30;99.90;;;;;;4980370;28;20414;-71
2023/11/12 11:21:06;;;;;;;23.17;15.10;;;8.40;99.90;;;;;;5008693;28;20038;-71
2023/11/12 11:23:51;;;;;;;25.15;15.27;;;8.40;99.90;;;;;;4992711;28;20410;-73
2023/11/12 11:26:24;;;;;;;22.30;13.95;;;8.40;99.90;;;;;;4994119;28;20556;-72
2023/11/12 11:29:05;;;;;;;25.40;15.05;;;8.50;99.90;;;;;;4993179;28;20044;-73
2023/11/12 11:31:38;;;;;;;22.58;14.57;;;8.50;99.90;;;;;;5008544;28;20054;-74
2023/11/12 11:34:10;;;;;;;23.23;13.90;;;8.50;99.90;;;;;;4992282;28;20042;-72
2023/11/12 11:36:37;;;;;;;24.05;14.63;;;8.70;99.90;;;;;;4992332;28;20053;-72
2023/11/12 11:39:03;;;;;;;28.80;15.52;;;8.80;99.90;;;;;;4991725;28;20047;-73
2023/11/12 11:41:34;;;;;;;25.00;14.45;;;8.80;99.90;;;;;;4992532;28;20042;-73
2023/11/12 11:44:41;;;;;;;24.48;14.18;;;8.70;99.90;;;;;;4976056;28;20078;-73
2023/11/12 11:47:15;;;;;;;23.30;13.73;;;8.70;99.90;;;;;;4970401;28;20455;-74
2023/11/12 11:49:42;;;;;;;25.05;13.65;;;8.80;99.90;;;;;;4966632;28;20037;-73
2023/11/12 11:52:08;;;;;;;23.10;13.45;;;8.90;99.90;;;;;;4988819;28;20048;-72
2023/11/12 11:54:35;;;;;;;22.45;13.07;;;9.00;99.90;;;;;;4980767;28;20053;-73
2023/11/12 11:57:02;;;;;;;22.55;14.10;;;9.00;99.90;;;;;;4991185;28;20042;-72
2023/11/12 11:59:46;;;;;;;18.23;12.15;;;9.00;99.90;;;;;;4983274;28;20058;-73
2023/11/12 12:02:16;;;;;;;19.33;12.38;;;9.10;99.90;;;;;;4990631;28;20100;-73
2023/11/12 12:04:49;;;;;;;20.17;12.45;;;9.10;99.90;;;;;;4975495;28;20042;-72
2023/11/12 12:07:25;;;;;;;19.55;11.63;;;9.10;99.90;;;;;;4992033;28;20034;-73
2023/11/12 12:09:53;;;;;;;19.88;12.57;;;9.00;99.90;;;;;;4975734;28;20125;-73
2023/11/12 12:12:19;;;;;;;20.10;12.10;;;9.00;99.90;;;;;;4991598;28;20077;-72
2023/11/12 12:14:44;;;;;;;20.98;11.82;;;9.10;99.90;;;;;;4991844;28;20469;-72
2023/11/12 12:17:10;;;;;;;17.23;9.82;;;9.00;99.90;;;;;;4975818;28;20050;-71
2023/11/12 12:19:36;;;;;;;19.63;11.40;;;9.00;99.90;;;;;;4991642;28;20510;-76
2023/11/12 12:22:04;;;;;;;18.85;10.45;;;9.00;99.90;;;;;;4991571;28;20038;-72
2023/11/12 12:24:32;;;;;;;17.58;10.45;;;9.00;99.90;;;;;;4991527;28;20509;-72
2023/11/12 12:26:58;;;;;;;17.33;10.02;;;9.00;99.90;;;;;;4992723;28;20038;-72
2023/11/12 12:29:25;;;;;;;15.10;9.98;;;8.90;99.90;;;;;;4992937;28;20078;-72
2023/11/12 12:31:53;;;;;;;15.02;9.77;;;9.00;99.90;;;;;;4991285;28;20064;-72
2023/11/12 12:34:20;;;;;;;14.60;9.32;;;9.00;99.90;;;;;;4990743;28;20081;-72
2023/11/12 12:37:06;;;;;;;14.30;9.60;;;9.00;99.90;;;;;;4975308;28;20108;-72
2023/11/12 12:40:10;;;;;;;16.13;9.43;;;8.90;99.90;;;;;;4991219;28;20046;-72